createdAt,value
2022-09-23T00:00:13.894Z,9.10
2022-09-23T00:02:41.047Z,9.10
2022-09-23T00:05:08.826Z,9.47
2022-09-23T00:07:35.939Z,8.77
2022-09-23T00:15:33.833Z,8.80
2022-09-23T00:18:00.893Z,9.57
2022-09-23T00:20:28.363Z,10.03
2022-09-23T00:22:56.690Z,9.53
2022-09-23T00:25:23.775Z,9.40
2022-09-23T00:27:50.816Z,9.83
2022-09-23T00:30:18.450Z,9.50
2022-09-23T00:32:45.508Z,10.43
2022-09-23T00:35:12.577Z,10.07
2022-09-23T00:37:39.707Z,10.27
2022-09-23T00:40:08.630Z,10.03
2022-09-23T00:42:35.794Z,10.27
2022-09-23T00:45:02.869Z,9.77
2022-09-23T00:47:32.840Z,10.17
2022-09-23T00:50:02.816Z,10.03
2022-09-23T00:52:30.029Z,9.90
2022-09-23T00:54:58.831Z,11.10
2022-09-23T00:57:26.414Z,10.77
2022-09-23T00:59:53.546Z,11.03
2022-09-23T01:02:23.952Z,11.17
2022-09-23T01:04:51.637Z,11.03
2022-09-23T01:07:18.960Z,10.97
2022-09-23T01:09:47.289Z,11.20
2022-09-23T01:12:27.298Z,11.37
2022-09-23T01:14:57.334Z,11.50
2022-09-23T01:17:31.155Z,10.97
2022-09-23T01:20:04.528Z,11.33
2022-09-23T01:22:50.657Z,10.77
2022-09-23T01:25:20.756Z,10.53
2022-09-23T01:27:53.824Z,10.27
2022-09-23T01:30:36.295Z,10.20
2022-09-23T01:33:08.821Z,11.17
2022-09-23T01:35:59.045Z,10.67
2022-09-23T01:38:51.173Z,9.90
2022-09-23T01:41:27.552Z,11.17
2022-09-23T01:44:05.059Z,11.17
2022-09-23T01:46:44.517Z,11.30
2022-09-23T01:49:11.570Z,10.83
2022-09-23T01:51:41.364Z,11.60
2022-09-23T01:54:15.877Z,11.50
2022-09-23T01:56:51.790Z,12.47
2022-09-23T01:59:26.597Z,12.60
2022-09-23T02:02:22.868Z,12.00
2022-09-23T02:04:51.460Z,11.13
2022-09-23T02:07:21.397Z,12.00
2022-09-23T02:09:53.738Z,12.47
2022-09-23T02:12:21.865Z,12.60
2022-09-23T02:14:54.822Z,12.70
2022-09-23T02:17:26.385Z,12.93
2022-09-23T02:19:59.209Z,13.70
2022-09-23T02:22:46.577Z,12.50
2022-09-23T02:25:16.247Z,12.63
2022-09-23T02:27:48.201Z,12.70
2022-09-23T02:30:17.851Z,14.00
2022-09-23T02:32:55.027Z,15.37
2022-09-23T02:35:33.004Z,16.37
2022-09-23T02:38:15.547Z,15.70
2022-09-23T02:40:50.951Z,15.20
2022-09-23T02:43:36.166Z,14.43
2022-09-23T02:46:04.541Z,14.50
2022-09-23T02:48:42.360Z,15.03
2022-09-23T02:51:10.415Z,14.47
2022-09-23T02:53:38.058Z,13.97
2022-09-23T02:56:15.538Z,14.27
2022-09-23T02:58:42.785Z,14.43
2022-09-23T03:01:21.952Z,13.93
2022-09-23T03:03:58.324Z,13.87
2022-09-23T03:06:33.447Z,14.97
2022-09-23T03:09:04.259Z,14.40
2022-09-23T03:11:32.965Z,14.37
2022-09-23T03:14:17.483Z,14.80
2022-09-23T03:16:51.464Z,15.70
2022-09-23T03:19:18.598Z,14.37
2022-09-23T03:22:03.671Z,14.83
2022-09-23T03:24:32.794Z,13.83
2022-09-23T03:27:02.047Z,14.20
2022-09-23T03:29:29.275Z,13.80
2022-09-23T03:31:57.264Z,14.37
2022-09-23T03:34:27.297Z,15.37
2022-09-23T03:37:00.806Z,15.60
2022-09-23T03:39:36.976Z,15.20
2022-09-23T03:42:16.818Z,15.47
2022-09-23T03:44:45.418Z,14.97
2022-09-23T03:47:13.845Z,16.73
2022-09-23T03:49:42.124Z,17.47
2022-09-23T03:52:09.617Z,16.93
2022-09-23T03:54:36.680Z,17.67
2022-09-23T03:57:03.811Z,16.27
2022-09-23T03:59:31.334Z,15.43
2022-09-23T04:01:59.549Z,15.73
2022-09-23T04:04:27.664Z,16.10
2022-09-23T04:06:55.241Z,16.57
2022-09-23T04:09:22.564Z,16.47
2022-09-23T04:11:50.680Z,16.57
2022-09-23T04:14:18.784Z,16.63
2022-09-23T04:16:46.462Z,16.57
2022-09-23T04:19:13.894Z,17.17
2022-09-23T04:21:41.619Z,19.63
2022-09-23T04:24:09.074Z,21.57
2022-09-23T04:26:36.514Z,26.93
2022-09-23T04:29:04.856Z,25.20
2022-09-23T04:31:32.919Z,23.50
2022-09-23T04:34:00.341Z,22.30
2022-09-23T04:36:27.835Z,22.00
2022-09-23T04:38:54.950Z,22.47
2022-09-23T04:41:22.006Z,24.73
2022-09-23T04:43:49.366Z,22.73
2022-09-23T04:46:17.149Z,24.53
2022-09-23T04:48:44.740Z,25.27
2022-09-23T04:51:11.817Z,23.23
2022-09-23T04:53:40.218Z,24.43
2022-09-23T04:56:10.070Z,22.50
2022-09-23T04:58:37.248Z,21.27
2022-09-23T05:01:19.531Z,21.47
2022-09-23T05:03:47.235Z,19.77
2022-09-23T05:06:15.209Z,18.80
2022-09-23T05:08:43.201Z,20.87
2022-09-23T05:11:10.296Z,20.53
2022-09-23T05:13:37.435Z,20.40
2022-09-23T05:16:06.674Z,21.10
2022-09-23T05:18:34.774Z,22.30
2022-09-23T05:21:02.520Z,20.83
2022-09-23T05:23:30.213Z,23.27
2022-09-23T05:25:59.062Z,23.20
2022-09-23T05:28:32.753Z,19.30
2022-09-23T05:31:04.383Z,24.20
2022-09-23T05:33:32.134Z,20.77
2022-09-23T05:35:59.240Z,32.50
2022-09-23T05:38:26.390Z,28.43
2022-09-23T05:40:57.661Z,24.13
2022-09-23T05:43:25.004Z,22.93
2022-09-23T05:45:52.607Z,21.47
2022-09-23T05:48:19.751Z,18.87
2022-09-23T05:50:50.591Z,20.80
2022-09-23T05:53:18.242Z,22.13
2022-09-23T05:55:45.940Z,22.57
2022-09-23T05:58:13.600Z,17.37
2022-09-23T06:00:41.496Z,19.73
2022-09-23T06:03:15.175Z,19.83
2022-09-23T06:05:42.431Z,19.27
2022-09-23T06:08:10.059Z,19.67
2022-09-23T06:10:41.560Z,19.90
2022-09-23T06:13:08.960Z,19.90
2022-09-23T06:15:36.717Z,17.53
2022-09-23T06:18:04.326Z,15.93
2022-09-23T06:20:31.414Z,17.40
2022-09-23T06:23:10.805Z,13.57
2022-09-23T06:25:38.580Z,13.90
2022-09-23T06:28:08.172Z,13.40
2022-09-23T06:30:35.281Z,12.33
2022-09-23T06:33:02.447Z,12.13
2022-09-23T06:35:32.458Z,11.47
2022-09-23T06:37:59.840Z,11.07
2022-09-23T06:40:27.065Z,10.80
2022-09-23T06:42:58.399Z,10.27
2022-09-23T06:45:25.983Z,13.37
2022-09-23T06:47:56.850Z,10.37
2022-09-23T06:50:27.781Z,19.50
2022-09-23T06:52:56.079Z,14.57
2022-09-23T06:55:24.501Z,17.67
2022-09-23T06:57:51.711Z,12.30
2022-09-23T07:00:19.276Z,12.97
2022-09-23T07:02:46.531Z,10.53
2022-09-23T07:05:15.628Z,12.63
2022-09-23T07:07:42.743Z,9.40
2022-09-23T07:10:10.737Z,9.83
2022-09-23T07:12:37.838Z,10.60
2022-09-23T07:15:05.316Z,9.07
2022-09-23T07:17:33.201Z,8.87
2022-09-23T07:20:00.273Z,8.30
2022-09-23T07:22:27.382Z,24.87
2022-09-23T07:24:57.665Z,9.40
2022-09-23T07:27:25.810Z,6.77
2022-09-23T07:29:53.249Z,7.40
2022-09-23T07:32:22.038Z,6.77
2022-09-23T07:34:49.349Z,6.90
2022-09-23T07:37:17.245Z,6.50
2022-09-23T07:39:44.733Z,5.60
2022-09-23T07:42:14.256Z,5.97
2022-09-23T07:44:47.713Z,5.87
2022-09-23T07:47:16.130Z,5.10
2022-09-23T07:49:43.255Z,4.80
2022-09-23T07:52:11.013Z,4.57
2022-09-23T07:54:38.137Z,4.80
2022-09-23T07:57:05.244Z,4.25
2022-09-23T07:59:32.349Z,4.25
2022-09-23T08:01:59.617Z,4.20
2022-09-23T08:04:29.159Z,4.10
2022-09-23T08:07:00.898Z,4.30
2022-09-23T08:09:29.311Z,4.57
2022-09-23T08:11:56.683Z,4.22
2022-09-23T08:14:23.842Z,4.13
2022-09-23T08:16:52.194Z,4.35
2022-09-23T08:19:19.550Z,4.53
2022-09-23T08:21:47.995Z,4.28
2022-09-23T08:24:16.761Z,4.45
2022-09-23T08:26:44.360Z,4.60
2022-09-23T08:29:15.560Z,4.60
2022-09-23T08:31:42.658Z,4.78
2022-09-23T08:34:10.044Z,5.15
2022-09-23T08:36:37.142Z,4.70
2022-09-23T08:39:04.807Z,4.97
2022-09-23T08:41:41.166Z,4.80
2022-09-23T08:44:14.116Z,4.55
2022-09-23T08:46:50.143Z,4.50
2022-09-23T08:49:23.290Z,4.32
2022-09-23T08:51:54.224Z,4.38
2022-09-23T08:54:21.454Z,4.75
2022-09-23T08:56:51.331Z,4.75
2022-09-23T08:59:21.395Z,4.38
2022-09-23T09:01:51.385Z,4.38
2022-09-23T09:04:18.688Z,5.10
2022-09-23T09:07:07.697Z,6.20
2022-09-23T09:09:52.166Z,5.20
2022-09-23T09:12:21.304Z,4.90
2022-09-23T09:14:53.312Z,4.93
2022-09-23T09:17:31.827Z,5.15
2022-09-23T09:20:05.397Z,5.63
2022-09-23T09:22:38.314Z,4.90
2022-09-23T09:25:24.194Z,4.85
2022-09-23T09:27:52.191Z,4.57
2022-09-23T09:30:19.589Z,4.80
2022-09-23T09:32:49.187Z,4.80
2022-09-23T09:35:21.374Z,5.20
2022-09-23T09:37:48.773Z,5.07
2022-09-23T09:40:17.352Z,4.88
2022-09-23T09:42:48.047Z,4.70
2022-09-23T09:45:15.076Z,4.95
2022-09-23T09:48:00.429Z,5.25
2022-09-23T09:50:43.203Z,5.28
2022-09-23T09:53:16.323Z,5.07
2022-09-23T09:55:43.494Z,4.60
2022-09-23T09:58:13.332Z,5.25
2022-09-23T10:00:45.618Z,5.00
2022-09-23T10:03:15.436Z,6.00
2022-09-23T10:05:45.326Z,5.30
2022-09-23T10:08:34.871Z,5.15
2022-09-23T10:11:01.999Z,5.03
2022-09-23T10:13:30.099Z,6.05
2022-09-23T10:15:58.508Z,6.20
2022-09-23T10:18:28.656Z,4.80
2022-09-23T10:21:03.302Z,5.38
2022-09-23T10:23:33.299Z,5.28
2022-09-23T10:26:06.214Z,4.55
2022-09-23T10:28:39.352Z,4.90
2022-09-23T10:31:10.661Z,5.35
2022-09-23T10:33:41.527Z,5.10
2022-09-23T10:36:11.716Z,3.95
2022-09-23T10:38:38.946Z,4.10
2022-09-23T10:41:30.116Z,4.47
2022-09-23T10:44:09.250Z,4.35
2022-09-23T10:46:47.435Z,4.15
2022-09-23T10:49:38.757Z,4.38
2022-09-23T10:52:06.596Z,4.07
2022-09-23T10:54:36.630Z,4.03
2022-09-23T10:57:41.576Z,4.18
2022-09-23T11:00:28.870Z,4.15
2022-09-23T11:02:56.894Z,4.22
2022-09-23T11:05:27.013Z,3.30
2022-09-23T11:08:09.182Z,4.10
2022-09-23T11:10:45.824Z,3.47
2022-09-23T11:13:33.785Z,3.72
2022-09-23T11:16:09.499Z,3.53
2022-09-23T11:18:42.661Z,3.33
2022-09-23T11:21:18.247Z,3.65
2022-09-23T11:23:48.362Z,3.50
2022-09-23T11:26:32.893Z,3.42
2022-09-23T11:29:25.991Z,3.60
2022-09-23T11:32:11.781Z,3.53
2022-09-23T11:34:57.733Z,3.55
2022-09-23T11:37:27.133Z,3.35
2022-09-23T11:40:01.062Z,2.97
2022-09-23T11:42:31.093Z,3.38
2022-09-23T11:45:19.293Z,3.20
2022-09-23T11:47:50.575Z,2.92
2022-09-23T11:50:20.661Z,3.20
2022-09-23T11:52:58.551Z,3.53
2022-09-23T11:55:27.591Z,2.97
2022-09-23T11:57:56.832Z,3.03
2022-09-23T12:00:24.977Z,3.20
2022-09-23T12:03:02.268Z,2.60
2022-09-23T12:05:39.889Z,2.60
2022-09-23T12:08:13.697Z,3.10
2022-09-23T12:10:54.165Z,3.00
2022-09-23T12:13:21.255Z,3.20
2022-09-23T12:16:03.462Z,3.13
2022-09-23T12:18:35.820Z,2.80
2022-09-23T12:21:02.891Z,2.50
2022-09-23T12:23:29.943Z,2.88
2022-09-23T12:26:00.637Z,2.10
2022-09-23T12:28:27.809Z,2.60
2022-09-23T12:30:56.987Z,2.42
2022-09-23T12:33:26.197Z,2.47
2022-09-23T12:35:54.448Z,2.00
2022-09-23T12:38:33.644Z,2.53
2022-09-23T12:41:00.993Z,2.13
2022-09-23T12:43:33.199Z,2.13
2022-09-23T12:46:19.628Z,1.85
2022-09-23T12:48:48.034Z,2.33
2022-09-23T12:51:16.886Z,2.38
2022-09-23T12:53:50.791Z,2.53
2022-09-23T12:56:23.264Z,2.55
2022-09-23T12:58:50.858Z,2.40
2022-09-23T13:01:23.038Z,2.60
2022-09-23T13:04:16.174Z,2.38
2022-09-23T13:06:58.803Z,2.20
2022-09-23T13:09:27.442Z,2.60
2022-09-23T13:11:59.788Z,2.63
2022-09-23T13:14:27.894Z,3.90
2022-09-23T13:16:56.132Z,2.20
2022-09-23T13:19:26.005Z,2.42
2022-09-23T13:22:07.911Z,2.47
2022-09-23T13:24:36.855Z,2.40
2022-09-23T13:27:06.039Z,3.60
2022-09-23T13:29:52.657Z,2.45
2022-09-23T13:32:20.710Z,3.33
2022-09-23T13:34:55.893Z,2.28
2022-09-23T13:37:24.282Z,2.28
2022-09-23T13:39:51.859Z,3.20
2022-09-23T13:42:29.166Z,2.00
2022-09-23T13:44:57.512Z,2.10
2022-09-23T13:47:25.965Z,2.03
2022-09-23T13:49:53.683Z,2.15
2022-09-23T13:52:29.815Z,2.00
2022-09-23T13:54:57.087Z,2.22
2022-09-23T13:57:29.147Z,2.20
2022-09-23T14:00:01.371Z,2.05
2022-09-23T14:02:28.695Z,2.22
2022-09-23T14:04:59.005Z,2.10
2022-09-23T14:07:26.635Z,2.40
2022-09-23T14:09:55.174Z,2.10
2022-09-23T14:12:22.475Z,2.10
2022-09-23T14:14:51.641Z,2.05
2022-09-23T14:17:19.808Z,2.03
2022-09-23T14:19:47.549Z,2.05
2022-09-23T14:22:28.031Z,2.00
2022-09-23T14:24:55.799Z,2.67
2022-09-23T14:27:30.407Z,2.13
2022-09-23T14:29:58.048Z,2.17
2022-09-23T14:32:27.477Z,2.17
2022-09-23T14:35:03.998Z,2.42
2022-09-23T14:37:52.794Z,2.40
2022-09-23T14:40:25.405Z,2.33
2022-09-23T14:42:57.403Z,2.30
2022-09-23T14:45:25.944Z,2.63
2022-09-23T14:48:22.350Z,2.60
2022-09-23T14:50:52.105Z,2.25
2022-09-23T14:53:19.377Z,2.17
2022-09-23T14:55:47.655Z,2.33
2022-09-23T14:58:17.406Z,2.28
2022-09-23T15:01:02.444Z,2.30
2022-09-23T15:03:29.803Z,2.60
2022-09-23T15:05:58.343Z,2.33
2022-09-23T15:08:27.266Z,2.40
2022-09-23T15:10:54.688Z,1.98
2022-09-23T15:13:26.500Z,2.42
2022-09-23T15:15:54.879Z,2.30
2022-09-23T15:18:23.182Z,1.85
2022-09-23T15:20:54.644Z,2.05
2022-09-23T15:23:35.782Z,2.00
2022-09-23T15:26:06.695Z,2.58
2022-09-23T15:28:33.824Z,2.20
2022-09-23T15:31:01.069Z,2.30
2022-09-23T15:33:28.207Z,2.00
2022-09-23T15:35:55.467Z,2.20
2022-09-23T15:38:22.763Z,2.45
2022-09-23T15:40:50.239Z,2.60
2022-09-23T15:43:22.567Z,2.13
2022-09-23T15:45:52.057Z,2.40
2022-09-23T15:48:26.804Z,2.40
2022-09-23T15:50:54.371Z,2.45
2022-09-23T15:53:23.089Z,2.60
2022-09-23T15:55:51.104Z,2.70
2022-09-23T15:58:22.489Z,2.08
2022-09-23T16:00:56.197Z,2.80
2022-09-23T16:03:28.282Z,2.70
2022-09-23T16:06:00.506Z,3.35
2022-09-23T16:08:27.936Z,2.20
2022-09-23T16:10:55.471Z,2.30
2022-09-23T16:13:22.998Z,1.90
2022-09-23T16:15:50.169Z,2.10
2022-09-23T16:18:17.362Z,1.80
2022-09-23T16:20:45.241Z,1.80
2022-09-23T16:23:41.052Z,2.17
2022-09-23T16:26:13.843Z,2.10
2022-09-23T16:28:40.893Z,2.30
2022-09-23T16:31:08.309Z,3.00
2022-09-23T16:33:35.637Z,3.30
2022-09-23T16:36:02.783Z,2.67
2022-09-23T16:38:30.501Z,2.17
2022-09-23T16:41:00.143Z,2.20
2022-09-23T16:43:32.672Z,2.03
2022-09-23T16:45:59.838Z,2.20
2022-09-23T16:48:27.035Z,2.10
2022-09-23T16:50:54.118Z,2.00
2022-09-23T16:53:21.190Z,1.93
2022-09-23T16:55:48.496Z,2.27
2022-09-23T16:58:15.618Z,2.30
2022-09-23T17:01:01.741Z,2.17
2022-09-23T17:03:41.261Z,2.53
2022-09-23T17:06:12.204Z,2.40
2022-09-23T17:08:43.045Z,2.70
2022-09-23T17:11:10.785Z,2.87
2022-09-23T17:13:41.011Z,2.50
2022-09-23T17:16:08.155Z,2.90
2022-09-23T17:18:35.252Z,2.70
2022-09-23T17:21:03.887Z,2.70
2022-09-23T17:23:31.787Z,2.60
2022-09-23T17:26:00.458Z,3.40
2022-09-23T17:28:27.678Z,5.77
2022-09-23T17:30:58.404Z,3.47
2022-09-23T17:33:26.042Z,4.77
2022-09-23T17:35:54.497Z,4.10
2022-09-23T17:38:27.952Z,4.50
2022-09-23T17:40:59.315Z,5.10
2022-09-23T17:43:26.431Z,4.93
2022-09-23T17:45:54.646Z,5.27
2022-09-23T17:48:22.548Z,5.70
2022-09-23T17:50:56.591Z,5.63
2022-09-23T17:53:24.203Z,5.50
2022-09-23T17:55:57.646Z,4.43
2022-09-23T17:58:25.999Z,5.77
2022-09-23T18:00:53.184Z,5.90
2022-09-23T18:03:20.354Z,5.50
2022-09-23T18:05:47.552Z,5.70
2022-09-23T18:08:14.664Z,6.43
2022-09-23T18:10:41.721Z,6.27
2022-09-23T18:13:08.839Z,4.50
2022-09-23T18:15:36.886Z,4.33
2022-09-23T18:18:04.525Z,4.70
2022-09-23T18:20:31.989Z,4.03
2022-09-23T18:22:59.200Z,3.73
2022-09-23T18:25:39.141Z,3.30
2022-09-23T18:28:06.826Z,3.80
2022-09-23T18:30:33.885Z,3.67
2022-09-23T18:33:02.075Z,3.73
2022-09-23T18:35:29.148Z,4.03
2022-09-23T18:37:56.299Z,5.30
2022-09-23T18:40:23.428Z,5.67
2022-09-23T18:42:50.787Z,4.97
2022-09-23T18:45:17.978Z,3.73
2022-09-23T18:48:03.789Z,3.80
2022-09-23T18:50:40.317Z,3.60
2022-09-23T18:53:08.192Z,3.97
2022-09-23T18:55:38.189Z,3.30
2022-09-23T18:58:07.323Z,4.23
2022-09-23T19:00:35.084Z,3.77
2022-09-23T19:03:02.600Z,4.00
2022-09-23T19:05:29.692Z,3.73
2022-09-23T19:07:57.224Z,4.20
2022-09-23T19:10:24.268Z,3.80
2022-09-23T19:12:51.432Z,3.43
2022-09-23T19:15:18.521Z,3.50
2022-09-23T19:17:45.580Z,3.47
2022-09-23T19:20:12.666Z,4.20
2022-09-23T19:22:39.973Z,4.33
2022-09-23T19:25:08.332Z,4.07
2022-09-23T19:27:35.952Z,4.30
2022-09-23T19:30:03.175Z,4.20
2022-09-23T19:32:33.327Z,5.23
2022-09-23T19:35:00.418Z,4.30
2022-09-23T19:37:27.490Z,4.27
2022-09-23T19:39:54.559Z,5.07
2022-09-23T19:42:21.927Z,5.00
2022-09-23T19:44:50.194Z,5.90
2022-09-23T19:47:17.410Z,4.80
2022-09-23T19:49:44.587Z,4.90
2022-09-23T19:52:11.691Z,5.30
2022-09-23T19:54:38.758Z,5.67
2022-09-23T19:57:06.368Z,4.97
2022-09-23T19:59:33.536Z,5.00
2022-09-23T20:02:00.662Z,5.07
2022-09-23T20:04:27.788Z,6.30
2022-09-23T20:06:54.857Z,6.80
2022-09-23T20:09:21.968Z,5.07
2022-09-23T20:11:49.580Z,6.10
2022-09-23T20:14:17.207Z,5.60
2022-09-23T20:16:45.589Z,5.50
2022-09-23T20:19:13.997Z,7.23
2022-09-23T20:21:41.095Z,6.60
2022-09-23T20:24:09.606Z,7.10
2022-09-23T20:26:55.410Z,7.37
2022-09-23T20:29:22.502Z,6.93
2022-09-23T20:31:49.609Z,6.37
2022-09-23T20:34:16.746Z,6.57
2022-09-23T20:36:44.151Z,6.90
2022-09-23T20:39:11.386Z,6.23
2022-09-23T20:41:39.268Z,7.17
2022-09-23T20:44:07.752Z,6.90
2022-09-23T20:46:35.737Z,8.23
2022-09-23T20:49:03.568Z,8.37
2022-09-23T20:51:33.289Z,7.60
2022-09-23T20:54:00.787Z,7.83
2022-09-23T20:56:28.500Z,7.30
2022-09-23T20:58:59.820Z,7.20
2022-09-23T21:01:30.051Z,6.70
2022-09-23T21:03:57.152Z,6.27
2022-09-23T21:06:26.045Z,6.20
2022-09-23T21:08:54.513Z,6.63
2022-09-23T21:11:21.962Z,6.70
2022-09-23T21:13:50.369Z,6.30
2022-09-23T21:16:18.338Z,6.77
2022-09-23T21:18:45.938Z,7.50
2022-09-23T21:21:14.372Z,7.23
2022-09-23T21:23:43.260Z,7.80
2022-09-23T21:26:14.727Z,7.70
2022-09-23T21:28:42.798Z,8.40
2022-09-23T21:31:10.934Z,8.23
2022-09-23T21:33:38.085Z,9.10
2022-09-23T21:36:06.278Z,8.77
2022-09-23T21:38:36.968Z,8.93
2022-09-23T21:41:05.388Z,9.40
2022-09-23T21:43:33.923Z,9.10
2022-09-23T21:46:02.281Z,8.40
2022-09-23T21:48:30.399Z,8.87
2022-09-23T21:50:58.611Z,8.97
2022-09-23T21:53:26.481Z,8.77
2022-09-23T21:55:53.824Z,8.30
2022-09-23T21:58:22.491Z,8.93
2022-09-23T22:00:49.654Z,9.40
2022-09-23T22:03:16.826Z,9.27
2022-09-23T22:05:43.997Z,10.03
2022-09-23T22:08:11.348Z,9.17
2022-09-23T22:10:38.756Z,7.70
2022-09-23T22:13:12.593Z,8.03
2022-09-23T22:15:40.071Z,7.47
2022-09-23T22:18:07.938Z,7.23
2022-09-23T22:20:35.007Z,7.73
2022-09-23T22:23:02.043Z,7.50
2022-09-23T22:25:29.088Z,8.07
2022-09-23T22:28:15.008Z,8.67
2022-09-23T22:31:00.969Z,8.83
2022-09-23T22:33:28.120Z,9.30
2022-09-23T22:36:01.943Z,8.90
2022-09-23T22:38:31.049Z,9.37
2022-09-23T22:40:59.705Z,8.83
2022-09-23T22:43:26.922Z,8.50
2022-09-23T22:45:54.024Z,8.77
2022-09-23T22:48:21.115Z,9.00
2022-09-23T22:50:48.235Z,7.53
2022-09-23T22:53:15.302Z,6.97
2022-09-23T22:55:42.695Z,7.50
2022-09-23T22:58:30.810Z,6.97
2022-09-23T23:00:57.484Z,6.83
2022-09-23T23:03:26.404Z,6.50
2022-09-23T23:05:57.555Z,7.57
2022-09-23T23:08:24.839Z,7.67
2022-09-23T23:10:51.898Z,7.30
2022-09-23T23:13:19.206Z,7.47
2022-09-23T23:15:46.362Z,8.13
2022-09-23T23:18:13.400Z,8.00
2022-09-23T23:20:40.477Z,7.80
2022-09-23T23:23:07.536Z,8.03
2022-09-23T23:25:34.675Z,7.60
2022-09-23T23:28:01.843Z,8.07
2022-09-23T23:30:28.927Z,8.13
2022-09-23T23:32:55.961Z,7.83
2022-09-23T23:35:23.056Z,7.93
2022-09-23T23:37:50.134Z,8.17
2022-09-23T23:40:22.580Z,8.07
2022-09-23T23:42:49.754Z,7.40
2022-09-23T23:45:17.338Z,7.93
2022-09-23T23:47:45.186Z,8.00
2022-09-23T23:50:12.262Z,7.80
2022-09-23T23:52:39.322Z,8.37
2022-09-23T23:55:06.542Z,8.23
2022-09-23T23:57:33.647Z,8.53
